sensor_id;sensor_type;location;lat;lon;timestamp;pressure;altitude;pressure_sealevel;temperature;humidity
35577;BME280;21680;52.400;16.920;2022-10-04T00:01:48;100888.08;;;9.92;84.42
35577;BME280;21680;52.400;16.920;2022-10-04T00:04:38;100889.96;;;9.90;84.43
35577;BME280;21680;52.400;16.920;2022-10-04T00:12:28;100887.73;;;9.82;84.56
35577;BME280;21680;52.400;16.920;2022-10-04T00:14:57;100892.44;;;9.81;84.66
35577;BME280;21680;52.400;16.920;2022-10-04T00:17:26;100894.66;;;9.78;84.64
35577;BME280;21680;52.400;16.920;2022-10-04T00:19:55;100895.82;;;9.76;84.49
35577;BME280;21680;52.400;16.920;2022-10-04T00:22:28;100896.64;;;9.72;84.54
35577;BME280;21680;52.400;16.920;2022-10-04T00:27:31;100897.35;;;9.68;84.78
35577;BME280;21680;52.400;16.920;2022-10-04T00:34:54;100896.30;;;9.62;84.73
35577;BME280;21680;52.400;16.920;2022-10-04T00:37:22;100893.90;;;9.60;84.63
35577;BME280;21680;52.400;16.920;2022-10-04T00:40:10;100895.41;;;9.57;84.79
35577;BME280;21680;52.400;16.920;2022-10-04T00:42:43;100893.15;;;9.56;84.87
35577;BME280;21680;52.400;16.920;2022-10-04T00:45:19;100897.70;;;9.53;84.83
35577;BME280;21680;52.400;16.920;2022-10-04T00:50:20;100897.27;;;9.51;84.78
35577;BME280;21680;52.400;16.920;2022-10-04T00:52:55;100897.31;;;9.49;84.90
35577;BME280;21680;52.400;16.920;2022-10-04T00:55:25;100892.15;;;9.49;84.99
35577;BME280;21680;52.400;16.920;2022-10-04T00:57:58;100889.16;;;9.48;85.04
35577;BME280;21680;52.400;16.920;2022-10-04T01:00:25;100891.57;;;9.45;84.91
35577;BME280;21680;52.400;16.920;2022-10-04T01:03:12;100886.61;;;9.44;85.02
35577;BME280;21680;52.400;16.920;2022-10-04T01:05:46;100889.52;;;9.42;84.85
35577;BME280;21680;52.400;16.920;2022-10-04T01:08:24;100891.38;;;9.40;84.93
35577;BME280;21680;52.400;16.920;2022-10-04T01:10:55;100892.26;;;9.40;85.08
35577;BME280;21680;52.400;16.920;2022-10-04T01:13:28;100891.17;;;9.40;84.96
35577;BME280;21680;52.400;16.920;2022-10-04T01:16:02;100889.62;;;9.39;84.93
35577;BME280;21680;52.400;16.920;2022-10-04T01:18:33;100891.64;;;9.38;84.94
35577;BME280;21680;52.400;16.920;2022-10-04T01:29:01;100896.39;;;9.29;85.07
35577;BME280;21680;52.400;16.920;2022-10-04T01:31:31;100894.65;;;9.28;84.97
35577;BME280;21680;52.400;16.920;2022-10-04T01:33:59;100897.23;;;9.25;85.07
35577;BME280;21680;52.400;16.920;2022-10-04T01:36:25;100898.56;;;9.23;85.16
35577;BME280;21680;52.400;16.920;2022-10-04T01:38:53;100899.17;;;9.21;85.14
35577;BME280;21680;52.400;16.920;2022-10-04T01:41:30;100898.91;;;9.18;85.05
35577;BME280;21680;52.400;16.920;2022-10-04T01:44:02;100901.14;;;9.15;85.11
35577;BME280;21680;52.400;16.920;2022-10-04T01:46:35;100901.40;;;9.13;85.31
35577;BME280;21680;52.400;16.920;2022-10-04T01:49:09;100902.54;;;9.11;85.17
35577;BME280;21680;52.400;16.920;2022-10-04T01:51:42;100900.83;;;9.09;85.20
35577;BME280;21680;52.400;16.920;2022-10-04T01:54:12;100902.33;;;9.06;85.25
35577;BME280;21680;52.400;16.920;2022-10-04T01:56:45;100903.60;;;9.05;85.49
35577;BME280;21680;52.400;16.920;2022-10-04T01:59:22;100904.71;;;9.04;85.48
35577;BME280;21680;52.400;16.920;2022-10-04T02:01:52;100906.05;;;9.02;85.57
35577;BME280;21680;52.400;16.920;2022-10-04T02:04:26;100905.38;;;9.01;85.66
35577;BME280;21680;52.400;16.920;2022-10-04T02:06:55;100903.20;;;9.02;85.63
35577;BME280;21680;52.400;16.920;2022-10-04T02:09:27;100901.40;;;9.02;85.81
35577;BME280;21680;52.400;16.920;2022-10-04T02:11:54;100905.11;;;9.03;85.86
35577;BME280;21680;52.400;16.920;2022-10-04T02:14:32;100904.61;;;9.02;85.95
35577;BME280;21680;52.400;16.920;2022-10-04T02:17:00;100901.92;;;9.02;85.91
35577;BME280;21680;52.400;16.920;2022-10-04T02:19:35;100900.25;;;9.04;86.15
35577;BME280;21680;52.400;16.920;2022-10-04T02:22:03;100902.02;;;9.05;86.23
35577;BME280;21680;52.400;16.920;2022-10-04T02:24:33;100906.86;;;9.04;86.17
35577;BME280;21680;52.400;16.920;2022-10-04T02:26:59;100908.62;;;9.05;86.13
35577;BME280;21680;52.400;16.920;2022-10-04T02:29:25;100907.11;;;9.07;86.35
35577;BME280;21680;52.400;16.920;2022-10-04T02:31:51;100910.77;;;9.10;86.39
35577;BME280;21680;52.400;16.920;2022-10-04T02:34:35;100909.61;;;9.12;86.45
35577;BME280;21680;52.400;16.920;2022-10-04T02:37:03;100915.05;;;9.15;86.52
35577;BME280;21680;52.400;16.920;2022-10-04T02:39:32;100917.08;;;9.19;86.52
35577;BME280;21680;52.400;16.920;2022-10-04T02:42:32;100917.02;;;9.20;86.41
35577;BME280;21680;52.400;16.920;2022-10-04T02:45:12;100921.23;;;9.22;86.70
35577;BME280;21680;52.400;16.920;2022-10-04T02:47:44;100925.61;;;9.25;86.56
35577;BME280;21680;52.400;16.920;2022-10-04T02:50:24;100924.36;;;9.24;86.51
35577;BME280;21680;52.400;16.920;2022-10-04T02:53:14;100919.42;;;9.23;86.51
35577;BME280;21680;52.400;16.920;2022-10-04T02:55:42;100920.08;;;9.20;86.53
35577;BME280;21680;52.400;16.920;2022-10-04T02:58:09;100921.93;;;9.17;86.74
35577;BME280;21680;52.400;16.920;2022-10-04T03:00:55;100922.34;;;9.16;86.60
35577;BME280;21680;52.400;16.920;2022-10-04T03:03:27;100917.84;;;9.12;86.59
35577;BME280;21680;52.400;16.920;2022-10-04T03:06:03;100914.56;;;9.08;86.70
35577;BME280;21680;52.400;16.920;2022-10-04T03:08:43;100915.38;;;9.05;86.63
35577;BME280;21680;52.400;16.920;2022-10-04T03:11:11;100915.33;;;9.01;86.66
35577;BME280;21680;52.400;16.920;2022-10-04T03:13:38;100915.46;;;8.97;86.79
35577;BME280;21680;52.400;16.920;2022-10-04T03:16:06;100919.73;;;8.92;86.75
35577;BME280;21680;52.400;16.920;2022-10-04T03:18:34;100917.36;;;8.88;86.98
35577;BME280;21680;52.400;16.920;2022-10-04T03:21:01;100921.80;;;8.84;86.88
35577;BME280;21680;52.400;16.920;2022-10-04T03:23:28;100923.85;;;8.80;86.92
35577;BME280;21680;52.400;16.920;2022-10-04T03:26:02;100920.21;;;8.77;87.03
35577;BME280;21680;52.400;16.920;2022-10-04T03:28:31;100925.99;;;8.74;87.14
35577;BME280;21680;52.400;16.920;2022-10-04T03:30:56;100926.14;;;8.70;87.24
35577;BME280;21680;52.400;16.920;2022-10-04T03:33:24;100922.63;;;8.68;87.21
35577;BME280;21680;52.400;16.920;2022-10-04T03:35:53;100922.52;;;8.66;87.40
35577;BME280;21680;52.400;16.920;2022-10-04T03:38:20;100919.88;;;8.65;87.53
35577;BME280;21680;52.400;16.920;2022-10-04T03:40:53;100919.21;;;8.63;87.66
35577;BME280;21680;52.400;16.920;2022-10-04T03:43:24;100916.25;;;8.61;87.73
35577;BME280;21680;52.400;16.920;2022-10-04T03:45:51;100918.99;;;8.59;87.79
35577;BME280;21680;52.400;16.920;2022-10-04T03:48:26;100915.46;;;8.57;88.01
35577;BME280;21680;52.400;16.920;2022-10-04T03:50:53;100917.11;;;8.57;88.14
35577;BME280;21680;52.400;16.920;2022-10-04T03:53:35;100910.36;;;8.56;88.35
35577;BME280;21680;52.400;16.920;2022-10-04T03:56:10;100908.24;;;8.55;88.54
35577;BME280;21680;52.400;16.920;2022-10-04T03:58:37;100912.71;;;8.55;88.51
35577;BME280;21680;52.400;16.920;2022-10-04T04:01:42;100910.38;;;8.56;88.56
35577;BME280;21680;52.400;16.920;2022-10-04T04:04:19;100914.95;;;8.57;88.48
35577;BME280;21680;52.400;16.920;2022-10-04T04:09:35;100927.27;;;8.62;88.86
35577;BME280;21680;52.400;16.920;2022-10-04T04:12:05;100925.48;;;8.68;88.87
35577;BME280;21680;52.400;16.920;2022-10-04T04:14:33;100928.92;;;8.72;88.94
35577;BME280;21680;52.400;16.920;2022-10-04T04:17:29;100927.23;;;8.75;88.95
35577;BME280;21680;52.400;16.920;2022-10-04T04:20:00;100934.73;;;8.80;89.08
35577;BME280;21680;52.400;16.920;2022-10-04T04:22:28;100934.90;;;8.86;89.20
35577;BME280;21680;52.400;16.920;2022-10-04T04:24:59;100939.54;;;8.91;89.29
35577;BME280;21680;52.400;16.920;2022-10-04T04:27:26;100948.48;;;8.96;89.36
35577;BME280;21680;52.400;16.920;2022-10-04T04:29:54;100948.17;;;9.00;89.37
35577;BME280;21680;52.400;16.920;2022-10-04T04:32:23;100951.27;;;9.03;89.33
35577;BME280;21680;52.400;16.920;2022-10-04T04:34:52;100950.25;;;9.07;89.43
35577;BME280;21680;52.400;16.920;2022-10-04T04:37:18;100958.50;;;9.11;89.43
35577;BME280;21680;52.400;16.920;2022-10-04T04:39:44;100964.61;;;9.15;89.45
35577;BME280;21680;52.400;16.920;2022-10-04T04:42:19;100965.76;;;9.18;89.34
35577;BME280;21680;52.400;16.920;2022-10-04T04:45:03;100963.77;;;9.20;89.55
35577;BME280;21680;52.400;16.920;2022-10-04T04:47:31;100963.32;;;9.22;89.51
35577;BME280;21680;52.400;16.920;2022-10-04T04:50:24;100969.64;;;9.25;89.63
35577;BME280;21680;52.400;16.920;2022-10-04T04:52:54;100969.69;;;9.29;89.58
35577;BME280;21680;52.400;16.920;2022-10-04T04:55:25;100972.67;;;9.30;89.56
35577;BME280;21680;52.400;16.920;2022-10-04T04:57:55;100972.06;;;9.33;89.48
35577;BME280;21680;52.400;16.920;2022-10-04T05:00:23;100976.06;;;9.36;89.63
35577;BME280;21680;52.400;16.920;2022-10-04T05:02:54;100972.59;;;9.38;89.64
35577;BME280;21680;52.400;16.920;2022-10-04T05:05:29;100977.13;;;9.41;89.86
35577;BME280;21680;52.400;16.920;2022-10-04T05:08:12;100978.73;;;9.41;89.72
35577;BME280;21680;52.400;16.920;2022-10-04T05:11:30;100986.30;;;9.44;89.78
35577;BME280;21680;52.400;16.920;2022-10-04T05:13:40;100989.80;;;9.46;89.78
35577;BME280;21680;52.400;16.920;2022-10-04T05:16:13;100993.31;;;9.48;89.78
35577;BME280;21680;52.400;16.920;2022-10-04T05:18:41;100989.36;;;9.49;89.76
35577;BME280;21680;52.400;16.920;2022-10-04T05:21:19;100984.30;;;9.51;89.77
35577;BME280;21680;52.400;16.920;2022-10-04T05:23:46;100987.27;;;9.53;89.76
35577;BME280;21680;52.400;16.920;2022-10-04T05:26:12;100985.77;;;9.55;89.78
35577;BME280;21680;52.400;16.920;2022-10-04T05:28:39;100990.70;;;9.57;89.62
35577;BME280;21680;52.400;16.920;2022-10-04T05:31:18;100995.98;;;9.59;89.83
35577;BME280;21680;52.400;16.920;2022-10-04T05:33:51;100997.86;;;9.61;89.81
35577;BME280;21680;52.400;16.920;2022-10-04T05:36:37;101002.27;;;9.63;89.80
35577;BME280;21680;52.400;16.920;2022-10-04T05:42:09;101004.48;;;9.66;89.96
35577;BME280;21680;52.400;16.920;2022-10-04T05:44:45;101007.42;;;9.68;89.87
35577;BME280;21680;52.400;16.920;2022-10-04T05:47:13;101010.86;;;9.72;89.84
35577;BME280;21680;52.400;16.920;2022-10-04T05:49:41;101013.42;;;9.76;89.87
35577;BME280;21680;52.400;16.920;2022-10-04T05:52:23;101011.73;;;9.79;89.66
35577;BME280;21680;52.400;16.920;2022-10-04T05:55:25;101015.86;;;9.83;89.77
35577;BME280;21680;52.400;16.920;2022-10-04T06:00:44;101021.77;;;9.88;89.56
35577;BME280;21680;52.400;16.920;2022-10-04T06:03:41;101022.89;;;9.91;89.55
35577;BME280;21680;52.400;16.920;2022-10-04T06:06:39;101026.72;;;9.94;89.62
35577;BME280;21680;52.400;16.920;2022-10-04T06:14:43;101031.25;;;10.02;89.63
35577;BME280;21680;52.400;16.920;2022-10-04T06:17:37;101031.98;;;10.07;89.43
35577;BME280;21680;52.400;16.920;2022-10-04T06:20:21;101033.75;;;10.13;89.45
35577;BME280;21680;52.400;16.920;2022-10-04T06:22:59;101041.96;;;10.18;89.48
35577;BME280;21680;52.400;16.920;2022-10-04T06:25:34;101040.83;;;10.20;89.33
35577;BME280;21680;52.400;16.920;2022-10-04T06:28:15;101042.98;;;10.25;89.32
35577;BME280;21680;52.400;16.920;2022-10-04T06:31:19;101048.14;;;10.30;89.15
35577;BME280;21680;52.400;16.920;2022-10-04T06:37:00;101050.23;;;10.37;89.10
35577;BME280;21680;52.400;16.920;2022-10-04T06:42:26;101058.31;;;10.50;89.00
35577;BME280;21680;52.400;16.920;2022-10-04T06:48:12;101063.77;;;10.61;88.77
35577;BME280;21680;52.400;16.920;2022-10-04T06:51:17;101062.73;;;10.65;88.71
35577;BME280;21680;52.400;16.920;2022-10-04T06:53:58;101062.13;;;10.67;88.47
35577;BME280;21680;52.400;16.920;2022-10-04T07:00:03;101064.52;;;10.75;88.27
35577;BME280;21680;52.400;16.920;2022-10-04T07:02:41;101068.45;;;10.80;88.21
35577;BME280;21680;52.400;16.920;2022-10-04T07:08:13;101074.79;;;10.87;88.03
35577;BME280;21680;52.400;16.920;2022-10-04T07:13:36;101076.25;;;10.91;87.82
35577;BME280;21680;52.400;16.920;2022-10-04T07:16:26;101079.19;;;10.98;87.81
35577;BME280;21680;52.400;16.920;2022-10-04T07:19:28;101083.86;;;11.02;87.54
35577;BME280;21680;52.400;16.920;2022-10-04T07:24:50;101086.11;;;11.14;87.46
35577;BME280;21680;52.400;16.920;2022-10-04T07:27:57;101088.34;;;11.21;87.32
35577;BME280;21680;52.400;16.920;2022-10-04T07:30:49;101086.46;;;11.27;87.17
35577;BME280;21680;52.400;16.920;2022-10-04T07:33:20;101083.18;;;11.33;87.02
35577;BME280;21680;52.400;16.920;2022-10-04T07:35:50;101088.70;;;11.38;86.83
35577;BME280;21680;52.400;16.920;2022-10-04T07:38:23;101088.41;;;11.42;86.75
35577;BME280;21680;52.400;16.920;2022-10-04T07:41:08;101090.41;;;11.46;86.46
35577;BME280;21680;52.400;16.920;2022-10-04T07:43:48;101091.63;;;11.46;85.79
35577;BME280;21680;52.400;16.920;2022-10-04T07:46:45;101095.14;;;11.48;85.72
35577;BME280;21680;52.400;16.920;2022-10-04T07:49:14;101104.79;;;11.53;85.35
35577;BME280;21680;52.400;16.920;2022-10-04T07:54:38;101101.05;;;11.57;84.74
35577;BME280;21680;52.400;16.920;2022-10-04T07:57:22;101103.74;;;11.65;84.80
35577;BME280;21680;52.400;16.920;2022-10-04T08:00:24;101103.61;;;11.68;84.14
35577;BME280;21680;52.400;16.920;2022-10-04T08:06:07;101110.07;;;11.73;83.91
35577;BME280;21680;52.400;16.920;2022-10-04T08:11:39;101117.48;;;11.85;83.88
35577;BME280;21680;52.400;16.920;2022-10-04T08:17:10;101119.94;;;12.03;83.46
35577;BME280;21680;52.400;16.920;2022-10-04T08:19:58;101124.81;;;12.07;83.31
35577;BME280;21680;52.400;16.920;2022-10-04T08:22:46;101126.67;;;12.09;83.30
35577;BME280;21680;52.400;16.920;2022-10-04T08:25:21;101126.91;;;12.17;83.27
35577;BME280;21680;52.400;16.920;2022-10-04T08:28:11;101126.67;;;12.26;83.04
35577;BME280;21680;52.400;16.920;2022-10-04T08:34:14;101125.84;;;12.37;82.11
35577;BME280;21680;52.400;16.920;2022-10-04T08:37:27;101129.43;;;12.45;81.97
35577;BME280;21680;52.400;16.920;2022-10-04T08:40:15;101130.73;;;12.48;81.58
35577;BME280;21680;52.400;16.920;2022-10-04T08:54:54;101146.08;;;12.58;80.61
35577;BME280;21680;52.400;16.920;2022-10-04T08:57:43;101148.16;;;12.67;80.65
35577;BME280;21680;52.400;16.920;2022-10-04T09:00:34;101154.73;;;12.70;80.13
35577;BME280;21680;52.400;16.920;2022-10-04T09:06:13;101144.08;;;12.75;79.74
35577;BME280;21680;52.400;16.920;2022-10-04T09:12:01;101145.61;;;12.68;78.52
35577;BME280;21680;52.400;16.920;2022-10-04T09:14:55;101156.45;;;12.66;78.44
35577;BME280;21680;52.400;16.920;2022-10-04T09:17:41;101151.06;;;12.67;77.81
35577;BME280;21680;52.400;16.920;2022-10-04T09:26:32;101170.73;;;12.92;77.05
35577;BME280;21680;52.400;16.920;2022-10-04T09:29:13;101163.41;;;12.88;76.17
35577;BME280;21680;52.400;16.920;2022-10-04T09:34:48;101169.25;;;12.89;75.78
35577;BME280;21680;52.400;16.920;2022-10-04T09:37:31;101173.92;;;12.85;75.32
35577;BME280;21680;52.400;16.920;2022-10-04T09:40:42;101180.66;;;12.83;75.34
35577;BME280;21680;52.400;16.920;2022-10-04T09:43:34;101170.20;;;12.88;74.97
35577;BME280;21680;52.400;16.920;2022-10-04T09:58:03;101172.29;;;13.13;73.48
35577;BME280;21680;52.400;16.920;2022-10-04T10:00:50;101179.23;;;13.14;73.27
35577;BME280;21680;52.400;16.920;2022-10-04T10:03:44;101177.95;;;13.19;73.63
35577;BME280;21680;52.400;16.920;2022-10-04T10:06:26;101181.48;;;13.28;73.34
35577;BME280;21680;52.400;16.920;2022-10-04T10:11:55;101182.14;;;13.18;72.54
35577;BME280;21680;52.400;16.920;2022-10-04T10:14:59;101184.33;;;13.29;72.68
35577;BME280;21680;52.400;16.920;2022-10-04T10:26:13;101185.46;;;13.35;72.21
35577;BME280;21680;52.400;16.920;2022-10-04T10:29:05;101189.67;;;13.33;72.03
35577;BME280;21680;52.400;16.920;2022-10-04T10:31:46;101192.89;;;13.34;72.10
35577;BME280;21680;52.400;16.920;2022-10-04T10:34:28;101200.61;;;13.34;71.79
35577;BME280;21680;52.400;16.920;2022-10-04T10:37:15;101206.89;;;13.34;71.82
35577;BME280;21680;52.400;16.920;2022-10-04T10:40:05;101212.63;;;13.34;71.44
35577;BME280;21680;52.400;16.920;2022-10-04T10:45:45;101211.13;;;13.43;71.36
35577;BME280;21680;52.400;16.920;2022-10-04T10:48:28;101211.02;;;13.57;70.44
35577;BME280;21680;52.400;16.920;2022-10-04T10:57:05;101209.87;;;13.51;69.71
35577;BME280;21680;52.400;16.920;2022-10-04T11:00:00;101213.94;;;13.44;69.89
35577;BME280;21680;52.400;16.920;2022-10-04T11:14:00;101218.37;;;13.50;69.21
35577;BME280;21680;52.400;16.920;2022-10-04T11:16:54;101217.94;;;13.67;69.12
35577;BME280;21680;52.400;16.920;2022-10-04T11:23:10;101223.54;;;13.70;68.51
35577;BME280;21680;52.400;16.920;2022-10-04T11:26:06;101228.64;;;13.64;67.99
35577;BME280;21680;52.400;16.920;2022-10-04T11:31:52;101220.09;;;13.74;67.88
35577;BME280;21680;52.400;16.920;2022-10-04T11:37:46;101223.38;;;14.28;67.29
35577;BME280;21680;52.400;16.920;2022-10-04T11:51:10;101214.48;;;14.38;66.29
35577;BME280;21680;52.400;16.920;2022-10-04T11:59:38;101213.43;;;14.12;65.46
35577;BME280;21680;52.400;16.920;2022-10-04T12:07:49;101215.84;;;14.82;65.13
35577;BME280;21680;52.400;16.920;2022-10-04T12:10:29;101210.21;;;14.83;65.15
35577;BME280;21680;52.400;16.920;2022-10-04T12:13:25;101208.53;;;14.81;64.33
35577;BME280;21680;52.400;16.920;2022-10-04T12:25:10;101202.38;;;14.39;64.67
35577;BME280;21680;52.400;16.920;2022-10-04T12:33:35;101184.96;;;15.85;64.19
35577;BME280;21680;52.400;16.920;2022-10-04T12:36:34;101189.13;;;16.29;64.30
35577;BME280;21680;52.400;16.920;2022-10-04T12:42:08;101185.05;;;17.00;62.14
35577;BME280;21680;52.400;16.920;2022-10-04T12:50:42;101187.96;;;17.69;59.40
35577;BME280;21680;52.400;16.920;2022-10-04T13:04:46;101200.45;;;16.90;57.62
35577;BME280;21680;52.400;16.920;2022-10-04T13:15:29;101195.39;;;18.31;57.67
35577;BME280;21680;52.400;16.920;2022-10-04T13:18:23;101188.45;;;18.54;57.70
35577;BME280;21680;52.400;16.920;2022-10-04T13:21:02;101189.23;;;18.39;56.29
35577;BME280;21680;52.400;16.920;2022-10-04T13:23:47;101197.09;;;17.79;55.76
35577;BME280;21680;52.400;16.920;2022-10-04T13:26:51;101203.89;;;17.25;55.50
35577;BME280;21680;52.400;16.920;2022-10-04T13:29:23;101202.20;;;17.41;56.50
35577;BME280;21680;52.400;16.920;2022-10-04T13:35:00;101191.59;;;18.07;55.66
35577;BME280;21680;52.400;16.920;2022-10-04T13:40:47;101194.61;;;18.64;54.73
35577;BME280;21680;52.400;16.920;2022-10-04T13:43:33;101201.16;;;18.72;53.78
35577;BME280;21680;52.400;16.920;2022-10-04T13:46:23;101200.29;;;18.61;53.21
35577;BME280;21680;52.400;16.920;2022-10-04T13:49:03;101199.64;;;18.73;53.48
35577;BME280;21680;52.400;16.920;2022-10-04T13:51:47;101206.60;;;18.77;52.14
35577;BME280;21680;52.400;16.920;2022-10-04T13:57:53;101206.16;;;18.97;52.24
35577;BME280;21680;52.400;16.920;2022-10-04T14:03:28;101206.73;;;19.09;51.92
35577;BME280;21680;52.400;16.920;2022-10-04T14:06:02;101201.39;;;19.10;51.81
35577;BME280;21680;52.400;16.920;2022-10-04T14:08:49;101200.06;;;19.01;51.04
35577;BME280;21680;52.400;16.920;2022-10-04T14:11:41;101197.84;;;18.99;51.14
35577;BME280;21680;52.400;16.920;2022-10-04T14:20:21;101195.35;;;19.08;51.16
35577;BME280;21680;52.400;16.920;2022-10-04T14:23:20;101197.73;;;19.00;50.34
35577;BME280;21680;52.400;16.920;2022-10-04T14:29:07;101198.14;;;19.07;51.27
35577;BME280;21680;52.400;16.920;2022-10-04T14:32:03;101200.05;;;18.98;50.66
35577;BME280;21680;52.400;16.920;2022-10-04T14:37:37;101202.96;;;17.94;50.36
35577;BME280;21680;52.400;16.920;2022-10-04T14:40:43;101205.79;;;17.73;51.01
35577;BME280;21680;52.400;16.920;2022-10-04T14:43:31;101205.36;;;17.45;50.82
35577;BME280;21680;52.400;16.920;2022-10-04T14:46:27;101205.33;;;17.28;51.52
35577;BME280;21680;52.400;16.920;2022-10-04T14:49:34;101212.81;;;17.12;51.36
35577;BME280;21680;52.400;16.920;2022-10-04T14:52:26;101213.75;;;16.86;51.42
35577;BME280;21680;52.400;16.920;2022-10-04T14:54:55;101216.88;;;16.72;51.89
35577;BME280;21680;52.400;16.920;2022-10-04T15:03:05;101209.20;;;16.37;52.52
35577;BME280;21680;52.400;16.920;2022-10-04T15:10:53;101215.59;;;16.27;52.84
35577;BME280;21680;52.400;16.920;2022-10-04T15:13:30;101214.95;;;16.04;52.96
35577;BME280;21680;52.400;16.920;2022-10-04T15:16:17;101218.73;;;15.90;53.20
35577;BME280;21680;52.400;16.920;2022-10-04T15:18:50;101221.16;;;15.89;53.46
35577;BME280;21680;52.400;16.920;2022-10-04T15:23:54;101225.49;;;15.83;53.92
35577;BME280;21680;52.400;16.920;2022-10-04T15:34:00;101232.12;;;15.77;54.72
35577;BME280;21680;52.400;16.920;2022-10-04T15:36:49;101237.64;;;15.78;54.92
35577;BME280;21680;52.400;16.920;2022-10-04T15:42:32;101241.39;;;15.73;54.95
35577;BME280;21680;52.400;16.920;2022-10-04T15:47:54;101244.44;;;15.53;55.17
35577;BME280;21680;52.400;16.920;2022-10-04T15:50:25;101246.38;;;15.34;55.27
35577;BME280;21680;52.400;16.920;2022-10-04T15:53:15;101243.08;;;15.28;55.57
35577;BME280;21680;52.400;16.920;2022-10-04T15:56:09;101244.23;;;15.23;55.67
35577;BME280;21680;52.400;16.920;2022-10-04T15:58:48;101245.08;;;15.21;55.96
35577;BME280;21680;52.400;16.920;2022-10-04T16:04:38;101240.64;;;15.20;56.20
35577;BME280;21680;52.400;16.920;2022-10-04T16:09:44;101239.14;;;15.04;56.56
35577;BME280;21680;52.400;16.920;2022-10-04T16:15:37;101236.30;;;14.76;56.78
35577;BME280;21680;52.400;16.920;2022-10-04T16:23:42;101234.38;;;14.39;57.29
35577;BME280;21680;52.400;16.920;2022-10-04T16:28:52;101232.49;;;14.19;57.79
35577;BME280;21680;52.400;16.920;2022-10-04T16:31:49;101237.02;;;14.11;57.99
35577;BME280;21680;52.400;16.920;2022-10-04T16:34:43;101234.77;;;14.05;58.23
35577;BME280;21680;52.400;16.920;2022-10-04T16:37:23;101235.98;;;13.99;58.36
35577;BME280;21680;52.400;16.920;2022-10-04T16:42:53;101240.89;;;13.82;58.75
35577;BME280;21680;52.400;16.920;2022-10-04T16:45:30;101243.11;;;13.77;58.82
35577;BME280;21680;52.400;16.920;2022-10-04T16:47:59;101245.20;;;13.68;59.00
35577;BME280;21680;52.400;16.920;2022-10-04T16:50:48;101248.84;;;13.62;59.29
35577;BME280;21680;52.400;16.920;2022-10-04T16:53:30;101250.44;;;13.59;59.51
35577;BME280;21680;52.400;16.920;2022-10-04T16:56:17;101252.30;;;13.54;59.75
35577;BME280;21680;52.400;16.920;2022-10-04T17:02:09;101256.91;;;13.51;60.08
35577;BME280;21680;52.400;16.920;2022-10-04T17:07:34;101254.77;;;13.47;60.33
35577;BME280;21680;52.400;16.920;2022-10-04T17:12:41;101257.74;;;13.41;60.53
35577;BME280;21680;52.400;16.920;2022-10-04T17:23:20;101276.94;;;13.00;61.06
35577;BME280;21680;52.400;16.920;2022-10-04T17:26:01;101275.42;;;12.90;61.27
35577;BME280;21680;52.400;16.920;2022-10-04T17:31:11;101279.67;;;12.83;61.51
35577;BME280;21680;52.400;16.920;2022-10-04T17:33:46;101278.39;;;12.79;61.64
35577;BME280;21680;52.400;16.920;2022-10-04T17:36:20;101278.96;;;12.74;61.83
35577;BME280;21680;52.400;16.920;2022-10-04T17:41:55;101270.61;;;12.64;62.05
35577;BME280;21680;52.400;16.920;2022-10-04T17:44:36;101277.16;;;12.57;62.24
35577;BME280;21680;52.400;16.920;2022-10-04T17:47:28;101279.68;;;12.53;62.37
35577;BME280;21680;52.400;16.920;2022-10-04T17:50:49;101288.95;;;12.50;62.60
35577;BME280;21680;52.400;16.920;2022-10-04T17:53:31;101287.98;;;12.47;62.95
35577;BME280;21680;52.400;16.920;2022-10-04T17:56:49;101293.10;;;12.45;62.95
35577;BME280;21680;52.400;16.920;2022-10-04T17:59:16;101290.42;;;12.40;63.15
35577;BME280;21680;52.400;16.920;2022-10-04T18:01:50;101288.91;;;12.38;63.16
35577;BME280;21680;52.400;16.920;2022-10-04T18:15:06;101289.40;;;12.16;63.81
35577;BME280;21680;52.400;16.920;2022-10-04T18:17:39;101290.17;;;12.11;63.95
35577;BME280;21680;52.400;16.920;2022-10-04T18:20:18;101291.55;;;12.08;64.14
35577;BME280;21680;52.400;16.920;2022-10-04T18:22:48;101288.01;;;12.07;64.40
35577;BME280;21680;52.400;16.920;2022-10-04T18:25:17;101283.95;;;12.05;64.39
35577;BME280;21680;52.400;16.920;2022-10-04T18:30:17;101290.46;;;12.03;64.74
35577;BME280;21680;52.400;16.920;2022-10-04T18:32:45;101289.95;;;12.02;64.81
35577;BME280;21680;52.400;16.920;2022-10-04T18:35:27;101290.73;;;12.01;64.95
35577;BME280;21680;52.400;16.920;2022-10-04T18:40:42;101297.98;;;11.94;65.15
35577;BME280;21680;52.400;16.920;2022-10-04T18:43:23;101305.18;;;11.88;65.32
35577;BME280;21680;52.400;16.920;2022-10-04T18:46:07;101302.98;;;11.81;65.37
35577;BME280;21680;52.400;16.920;2022-10-04T18:48:51;101302.15;;;11.73;65.50
35577;BME280;21680;52.400;16.920;2022-10-04T18:51:37;101302.73;;;11.67;65.75
35577;BME280;21680;52.400;16.920;2022-10-04T18:54:35;101302.40;;;11.62;65.84
35577;BME280;21680;52.400;16.920;2022-10-04T19:00:08;101307.66;;;11.60;66.43
35577;BME280;21680;52.400;16.920;2022-10-04T19:03:06;101306.83;;;11.58;66.42
35577;BME280;21680;52.400;16.920;2022-10-04T19:05:50;101314.84;;;11.54;66.67
35577;BME280;21680;52.400;16.920;2022-10-04T19:12:04;101321.66;;;11.49;66.72
35577;BME280;21680;52.400;16.920;2022-10-04T19:17:37;101326.40;;;11.42;67.13
35577;BME280;21680;52.400;16.920;2022-10-04T19:20:10;101337.16;;;11.41;67.13
35577;BME280;21680;52.400;16.920;2022-10-04T19:25:34;101328.86;;;11.38;67.52
35577;BME280;21680;52.400;16.920;2022-10-04T19:28:12;101327.29;;;11.37;67.64